Latest Weather Observations for Orbost

IDV60801

Issued at 7:04 pm EDT Tuesday 31 March 2015 (issued every 30 minutes, with the page automatically refreshed every 10 minutes)

About weather observations | Map of weather stations | Latest weather observations for VIC | Other Formats
Station Details ID: 084145 Name: ORBOST Lat: -37.69 Lon: 148.47 Height: 62.65 m
Data from the previous 72 hours. | See also: Recent months at Orbost
Date/Time
EDT
Temp
°C
App
Temp
°C
Dew
Point
Rel
Hum
%
Delta-T
°C
Wind Press
QNH
hPa
Press
MSL
hPa
Rain
since 9 am
mm
Dir
 
Spd
km/h
Gust
km/h
Spd
kts
Gust
kts
31/07:00pm 18.6 20.5 15.8 84 1.7 CALM 0 0 0 0 1022.5 1022.4 0.0
31/06:30pm 21.1 23.1 16.9 77 2.6 SW 2 4 1 2 1022.6 1022.5 0.0
31/06:00pm 21.1 22.2 17.1 78 2.4 SW 7 9 4 5 1022.3 1022.2 0.0
31/05:30pm 21.3 22.4 16.5 74 2.9 SSE 6 11 3 6 1022.1 1022.0 0.0
31/05:00pm 21.9 23.0 17.1 74 2.9 S 7 11 4 6 1022.3 1022.2 0.0
31/04:30pm 21.9 22.0 16.6 72 3.2 SSE 11 19 6 10 1022.4 1022.3 0.0
31/04:00pm 22.6 22.7 16.6 69 3.7 SSE 11 19 6 10 1022.5 1022.4 0.0
31/03:30pm 23.3 23.5 16.8 67 4.0 S 11 19 6 10 1022.7 1022.6 0.0
31/03:00pm 23.0 23.3 16.1 65 4.2 SSE 9 17 5 9 1022.9 1022.8 0.0
31/02:30pm 22.5 23.0 15.6 65 4.1 SE 7 17 4 9 1023.4 1023.3 0.0
31/02:00pm 21.8 21.8 15.2 66 3.9 SSE 9 15 5 8 1024.3 1024.1 0.0
31/01:30pm 21.1 21.1 14.3 65 4.0 SE 7 15 4 8 1025.1 1024.9 0.0
31/01:00pm 21.2 21.3 14.4 65 4.0 SE 7 13 4 7 1025.6 1025.4 0.0
31/12:30pm 21.6 21.7 13.8 61 4.5 SE 6 15 3 8 1026.1 1025.9 0.0
31/12:00pm 20.5 20.3 13.0 62 4.2 S 6 9 3 5 1026.7 1026.5 0.0
31/11:30am 19.6 19.9 13.3 67 3.6 SW 4 9 2 5 1026.9 1026.7 0.0
31/11:00am 18.1 18.2 12.8 71 3.0 WSW 4 6 2 3 1027.2 1027.0 0.0
31/10:30am 17.0 17.3 13.5 80 2.0 WNW 4 4 2 2 1027.3 1027.1 0.0
31/10:00am 14.9 16.1 13.9 94 0.6 CALM 0 0 0 0 1027.3 1027.1 0.0
31/09:30am 13.8 14.9 13.5 98 0.2 CALM 0 0 0 0 1027.4 1027.2 0.0
31/09:00am 12.3 12.5 12.0 98 0.2 W 2 4 1 2 1027.2 1027.0 0.0
31/08:30am 11.6 12.0 11.4 99 0.1 CALM 0 0 0 0 1027.0 1026.8 0.0
31/08:00am 9.8 9.7 9.5 98 0.1 CALM 0 0 0 0 1026.9 1026.7 0.0
31/07:30am 10.0 10.0 9.7 98 0.2 CALM 0 0 0 0 1026.6 1026.4 0.0
31/07:00am 9.9 9.8 9.6 98 0.1 CALM 0 2 0 1 1026.3 1026.1 0.0
31/06:30am 10.2 10.2 9.9 98 0.2 CALM 0 2 0 1 1026.2 1026.0 0.0
31/06:00am 10.4 9.7 10.1 98 0.2 N 4 6 2 3 1026.0 1025.8 0.0
31/05:30am 11.0 11.2 10.7 98 0.2 CALM 0 4 0 2 1026.1 1025.9 0.0
31/05:00am 10.6 10.7 10.3 98 0.2 CALM 0 0 0 0 1025.9 1025.7 0.0
31/04:30am 11.0 11.2 10.7 98 0.2 CALM 0 0 0 0 1025.8 1025.6 0.0
31/04:00am 11.1 11.4 10.8 98 0.2 CALM 0 0 0 0 1026.0 1025.8 0.0
31/03:30am 11.2 11.4 10.7 97 0.3 CALM 0 0 0 0 1026.1 1025.9 0.0
31/03:00am 11.2 11.4 10.7 97 0.3 CALM 0 0 0 0 1026.1 1025.9 0.0
31/02:30am 11.5 11.8 11.0 97 0.3 CALM 0 0 0 0 1026.3 1026.1 0.0
31/02:00am 11.8 11.5 11.3 97 0.3 N 4 6 2 3 1026.5 1026.3 0.0
31/01:30am 12.1 11.8 11.6 97 0.3 NNE 4 6 2 3 1026.5 1026.3 0.0
31/01:00am 12.4 13.0 11.8 96 0.3 CALM 0 0 0 0 1026.5 1026.3 0.0
31/12:30am 12.1 11.8 11.5 96 0.3 N 4 4 2 2 1026.7 1026.5 0.0
31/12:00am 12.2 12.2 11.3 94 0.5 NNW 2 4 1 2 1026.9 1026.7 0.0
 
Date/Time
EDT
Temp
°C
App
Temp
°C
Dew
Point
Rel
Hum
%
Delta-T
°C
Wind Press
QNH
hPa
Press
MSL
hPa
Rain
since 9 am
mm
Dir
 
Spd
km/h
Gust
km/h
Spd
kts
Gust
kts
30/11:30pm 12.7 12.5 11.8 94 0.5 N 4 4 2 2 1027.2 1027.0 0.0
30/11:00pm 13.2 13.2 12.3 94 0.5 NNW 4 4 2 2 1027.3 1027.1 0.0
30/10:30pm 13.3 13.2 12.2 93 0.6 N 4 4 2 2 1027.3 1027.1 0.0
30/10:00pm 13.9 14.5 13.0 94 0.5 NNW 2 4 1 2 1027.1 1026.9 0.0
30/09:30pm 13.3 13.9 12.0 92 0.7 CALM 0 0 0 0 1026.8 1026.6 0.0
30/09:00pm 14.4 15.3 12.8 90 0.9 CALM 0 0 0 0 1026.7 1026.5 0.0
30/08:30pm 15.0 15.9 13.0 88 1.1 CALM 0 0 0 0 1026.5 1026.3 0.0
30/08:00pm 15.3 15.9 13.0 86 1.3 SE 2 4 1 2 1026.1 1025.9 0.0
30/07:30pm 15.8 16.0 12.9 83 1.6 SE 4 6 2 3 1025.6 1025.4 0.0
30/07:00pm 16.7 16.8 12.8 78 2.2 SSE 4 9 2 5 1025.2 1025.0 0.0
30/06:30pm 17.8 17.6 12.9 73 2.7 SSE 6 11 3 6 1024.7 1024.5 0.0
30/06:00pm 18.5 17.6 12.7 69 3.2 SSE 9 15 5 8 1024.3 1024.1 0.0
30/05:30pm 19.4 18.4 12.2 63 4.0 SSE 9 17 5 9 1023.9 1023.7 0.0
30/05:00pm 20.1 19.4 12.1 60 4.5 SE 7 15 4 8 1023.5 1023.4 0.0
30/04:30pm 20.3 18.8 11.8 58 4.7 SSE 11 17 6 9 1023.2 1023.1 0.0
30/04:00pm 20.5 18.9 11.7 57 4.9 S 11 17 6 9 1023.2 1023.1 0.0
30/03:30pm 21.0 19.5 11.9 56 5.1 SSE 11 20 6 11 1023.1 1023.0 0.0
30/03:00pm 22.0 20.4 11.4 51 5.9 SSE 11 17 6 9 1022.7 1022.6 0.0
30/02:30pm 22.4 20.2 10.9 48 6.4 SSE 13 19 7 10 1022.8 1022.7 0.0
30/02:00pm 23.5 22.8 11.9 48 6.6 S 7 11 4 6 1022.9 1022.8 0.0
30/01:30pm 22.9 22.1 11.0 47 6.6 SSW 6 13 3 7 1023.2 1023.1 0.0
30/01:00pm 23.0 22.1 10.8 46 6.7 NNE 6 9 3 5 1023.6 1023.5 0.0
30/12:30pm 21.3 20.3 10.2 49 6.0 SSW 6 9 3 5 1024.1 1023.9 0.0
30/12:00pm 20.8 20.2 11.7 56 5.0 SSW 6 13 3 7 1024.4 1024.2 0.0
30/11:30am 20.2 20.1 12.2 60 4.5 SSW 4 7 2 4 1024.6 1024.4 0.0
30/11:00am 19.2 19.1 12.2 64 3.9 SSW 4 11 2 6 1025.0 1024.8 0.0
30/10:30am 17.5 17.4 12.0 70 3.0 WSW 4 6 2 3 1025.1 1024.9 0.0
30/10:00am 16.1 16.1 12.5 79 2.0 WNW 4 6 2 3 1025.0 1024.8 0.0
30/09:30am 14.3 15.1 12.5 89 1.0 CALM 0 0 0 0 1025.0 1024.8 0.0
30/09:00am 11.6 11.8 10.7 94 0.5 CALM 0 2 0 1 1024.7 1024.5 0.0
30/08:30am 10.9 11.1 10.4 97 0.3 CALM 0 0 0 0 1024.6 1024.4 0.0
30/08:00am 9.9 9.8 9.4 97 0.2 CALM 0 0 0 0 1024.3 1024.1 0.0
30/07:30am 9.1 8.8 8.6 97 0.2 CALM 0 0 0 0 1024.0 1023.8 0.0
30/07:00am 9.4 9.2 8.9 97 0.2 CALM 0 0 0 0 1023.7 1023.6 0.0
30/06:30am 9.3 9.0 8.8 97 0.2 CALM 0 0 0 0 1023.4 1023.3 0.0
30/06:00am 9.7 9.5 9.2 97 0.2 CALM 0 0 0 0 1023.3 1023.2 0.0
30/05:30am 9.4 9.2 8.9 97 0.2 CALM 0 0 0 0 1022.9 1022.8 0.0
30/05:00am 9.7 9.5 9.2 97 0.2 CALM 0 0 0 0 1023.0 1022.9 0.0
30/04:30am 9.5 9.3 9.0 97 0.2 CALM 0 0 0 0 1023.1 1023.0 0.0
30/04:00am 10.1 10.0 9.6 97 0.2 CALM 0 0 0 0 1023.1 1023.0 0.0
30/03:30am 10.4 10.4 9.9 97 0.3 CALM 0 0 0 0 1023.3 1023.2 0.0
30/03:00am 10.5 10.5 9.9 96 0.3 CALM 0 0 0 0 1023.5 1023.4 0.0
30/02:30am 10.4 10.0 9.8 96 0.3 N 2 4 1 2 1023.7 1023.6 0.0
30/02:00am 10.4 9.6 9.6 95 0.4 N 4 4 2 2 1024.0 1023.8 0.0
30/01:30am 10.4 10.3 9.6 95 0.4 CALM 0 0 0 0 1024.0 1023.8 0.0
30/01:00am 10.8 10.1 9.9 94 0.5 N 4 6 2 3 1024.0 1023.8 0.0
30/12:30am 11.0 10.2 9.8 92 0.6 N 4 6 2 3 1024.1 1023.9 0.0
30/12:00am 11.8 11.3 10.7 93 0.6 N 4 6 2 3 1024.3 1024.1 0.0
 
Date/Time
EDT
Temp
°C
App
Temp
°C
Dew
Point
Rel
Hum
%
Delta-T
°C
Wind Press
QNH
hPa
Press
MSL
hPa
Rain
since 9 am
mm
Dir
 
Spd
km/h
Gust
km/h
Spd
kts
Gust
kts
29/11:30pm 11.7 11.1 10.3 91 0.7 N 4 4 2 2 1024.5 1024.3 0.0
29/11:00pm 11.9 11.0 10.5 91 0.7 N 6 6 3 3 1024.4 1024.2 0.0
29/10:30pm 12.2 12.0 10.4 89 0.9 NNE 2 4 1 2 1024.7 1024.5 0.0
29/10:00pm 12.4 12.2 10.5 88 1.0 NE 2 4 1 2 1024.6 1024.4 0.0
29/09:30pm 12.7 12.9 10.6 87 1.1 CALM 0 0 0 0 1024.3 1024.1 0.0
29/09:00pm 13.5 13.7 10.7 83 1.5 CALM 0 2 0 1 1023.9 1023.7 0.0
29/08:30pm 14.3 14.7 11.1 81 1.7 CALM 0 0 0 0 1023.3 1023.2 0.0
29/08:00pm 14.5 14.4 10.9 79 1.9 ESE 2 4 1 2 1022.8 1022.7 0.0
29/07:30pm 15.4 14.9 10.6 73 2.5 ESE 4 4 2 2 1022.3 1022.2 0.0
29/07:00pm 16.3 15.7 10.4 68 3.1 ESE 4 4 2 2 1021.8 1021.7 0.0
29/06:30pm 17.4 16.4 10.3 63 3.8 SSE 6 13 3 7 1021.4 1021.3 0.0
29/06:00pm 18.7 16.8 9.2 54 5.0 S 9 15 5 8 1021.1 1021.0 0.0
29/05:30pm 19.7 18.2 9.0 50 5.6 SSE 7 13 4 7 1020.7 1020.6 0.0
29/05:00pm 20.1 18.2 9.1 49 5.8 SE 9 13 5 7 1020.6 1020.5 0.0
29/04:30pm 20.7 18.9 9.3 48 6.1 SE 9 15 5 8 1020.6 1020.5 0.0
29/04:00pm 21.8 20.1 10.0 47 6.4 SSE 9 17 5 9 1020.5 1020.4 0.0
29/03:30pm 21.4 19.3 9.9 48 6.2 SSE 11 17 6 9 1020.7 1020.6 0.0
29/03:00pm 21.6 19.7 10.4 49 6.1 SSE 11 19 6 10 1020.8 1020.7 0.0
29/02:30pm 22.1 20.8 11.2 50 6.1 SSE 9 17 5 9 1020.9 1020.8 0.0
29/02:00pm 22.3 20.2 6.5 36 8.0 SW 7 15 4 8 1021.1 1021.0 0.0
29/01:30pm 22.2 20.7 9.0 43 7.1 W 7 17 4 9 1021.5 1021.4 0.0
29/01:00pm 21.1 19.2 9.0 46 6.4 W 9 17 5 9 1022.0 1021.9 0.0
29/12:30pm 21.4 20.3 9.9 48 6.2 NW 6 11 3 6 1022.2 1022.1 0.0
29/12:00pm 20.3 19.0 10.1 52 5.5 W 7 11 4 6 1022.7 1022.6 0.0
29/11:30am 19.2 17.8 9.4 53 5.2 WNW 7 11 4 6 1023.0 1022.9 0.0
29/11:00am 18.1 17.3 11.0 63 3.8 WNW 6 7 3 4 1023.0 1022.9 0.0
29/10:30am 16.5 16.0 10.8 69 3.1 WNW 4 7 2 4 1023.4 1023.3 0.0
29/10:00am 14.8 14.2 10.4 75 2.3 WNW 4 6 2 3 1023.5 1023.4 0.0
29/09:30am 13.3 13.3 11.0 86 1.2 NNW 2 4 1 2 1023.5 1023.4 0.0
29/09:00am 11.1 10.4 10.0 93 0.6 NNW 4 4 2 2 1023.3 1023.2 0.2
29/08:30am 9.2 8.9 8.6 96 0.3 CALM 0 0 0 0 1023.0 1022.9 0.2
29/08:00am 8.8 8.4 8.4 97 0.2 CALM 0 2 0 1 1022.3 1022.2 0.0
29/07:30am 7.8 7.2 7.4 97 0.2 CALM 0 4 0 2 1021.9 1021.8 0.0
29/07:00am 8.5 7.7 8.1 97 0.2 NNW 2 4 1 2 1021.7 1021.6 0.0
29/06:30am 8.2 7.3 7.8 97 0.2 NNW 2 4 1 2 1021.3 1021.2 0.0
29/06:00am 8.5 7.7 8.1 97 0.2 NW 2 4 1 2 1020.9 1020.8 0.0
29/05:30am 8.2 7.7 7.8 97 0.2 CALM 0 0 0 0 1020.8 1020.7 0.0
29/05:00am 8.0 7.4 7.6 97 0.2 CALM 0 0 0 0 1020.8 1020.7 0.0
29/04:30am 8.4 7.9 8.0 97 0.2 CALM 0 0 0 0 1020.8 1020.7 0.0
29/04:00am 8.6 7.4 8.0 96 0.3 N 4 6 2 3 1020.8 1020.7 0.0
29/03:30am 8.6 7.4 8.2 97 0.2 NW 4 6 2 3 1021.0 1020.9 0.0
29/03:00am 9.0 8.6 8.4 96 0.3 CALM 0 0 0 0 1021.2 1021.1 0.0
29/02:30am 9.2 8.9 8.6 96 0.3 CALM 0 0 0 0 1021.4 1021.3 0.0
29/02:00am 9.5 9.3 8.9 96 0.3 CALM 0 0 0 0 1021.7 1021.6 0.0
29/01:30am 9.6 9.4 9.0 96 0.3 CALM 0 0 0 0 1022.0 1021.9 0.0
29/01:00am 9.8 9.6 9.2 96 0.3 CALM 0 0 0 0 1022.3 1022.2 0.0
29/12:30am 9.5 9.2 8.7 95 0.4 CALM 0 2 0 1 1022.3 1022.2 0.0
29/12:00am 10.0 9.8 8.9 93 0.5 CALM 0 0 0 0 1022.6 1022.5 0.0
 
Date/Time
EDT
Temp
°C
App
Temp
°C
Dew
Point
Rel
Hum
%
Delta-T
°C
Wind Press
QNH
hPa
Press
MSL
hPa
Rain
since 9 am
mm
Dir
 
Spd
km/h
Gust
km/h
Spd
kts
Gust
kts
28/11:30pm 9.8 9.4 8.2 90 0.8 CALM 0 2 0 1 1022.9 1022.8 0.0
28/11:00pm 11.0 9.9 9.8 92 0.6 NE 6 7 3 4 1023.0 1022.9 0.0
28/10:30pm 11.1 10.4 9.9 92 0.6 NE 4 7 2 4 1023.3 1023.2 0.0
28/10:00pm 10.5 9.9 9.1 91 0.7 ENE 2 4 1 2 1023.4 1023.3 0.0
28/09:30pm 11.8 11.1 10.2 90 0.8 NE 4 6 2 3 1023.5 1023.4 0.0
28/09:00pm 11.9 10.8 10.0 88 1.0 NE 6 6 3 3 1023.2 1023.1 0.0
28/08:30pm 12.2 11.5 10.1 87 1.1 NE 4 6 2 3 1023.0 1022.9 0.0
28/08:00pm 12.7 12.0 10.1 84 1.3 ENE 4 6 2 3 1022.8 1022.7 0.0
28/07:30pm 13.1 12.7 9.7 80 1.7 E 2 4 1 2 1022.6 1022.5 0.0

Other Formats:

Comma delimited format used in spreadsheet applications
http://www.bom.gov.au/fwo/IDV60801/IDV60801.95918.axf

JavaScript Object Notation format (JSON) in row-major order
http://www.bom.gov.au/fwo/IDV60801/IDV60801.95918.json